createdAt,value
2022-09-06T00:00:36.568Z,8.38
2022-09-06T00:03:03.142Z,8.50
2022-09-06T00:05:30.897Z,8.55
2022-09-06T00:08:01.832Z,8.43
2022-09-06T00:10:29.858Z,8.23
2022-09-06T00:12:59.618Z,8.48
2022-09-06T00:15:25.960Z,8.50
2022-09-06T00:17:52.251Z,8.43
2022-09-06T00:20:18.576Z,8.02
2022-09-06T00:22:44.896Z,8.38
2022-09-06T00:25:11.228Z,9.27
2022-09-06T00:27:37.577Z,8.70
2022-09-06T00:30:04.779Z,8.52
2022-09-06T00:32:31.972Z,8.88
2022-09-06T00:34:58.292Z,9.18
2022-09-06T00:37:24.655Z,8.25
2022-09-06T00:39:51.020Z,9.38
2022-09-06T00:42:17.333Z,9.35
2022-09-06T00:44:43.727Z,8.68
2022-09-06T00:47:10.127Z,9.65
2022-09-06T00:49:43.442Z,8.50
2022-09-06T00:52:12.909Z,9.32
2022-09-06T00:54:40.200Z,9.07
2022-09-06T00:57:07.138Z,8.68
2022-09-06T00:59:36.165Z,8.27
2022-09-06T01:02:02.796Z,8.00
2022-09-06T01:04:29.484Z,8.32
2022-09-06T01:07:28.780Z,8.70
2022-09-06T01:10:11.903Z,8.88
2022-09-06T01:13:04.624Z,9.75
2022-09-06T01:15:58.140Z,8.73
2022-09-06T01:18:57.512Z,9.23
2022-09-06T01:21:37.617Z,9.30
2022-09-06T01:24:41.080Z,9.35
2022-09-06T01:27:40.027Z,8.85
2022-09-06T01:30:09.813Z,9.90
2022-09-06T01:33:00.530Z,9.82
2022-09-06T01:35:35.987Z,8.60
2022-09-06T01:38:04.188Z,9.40
2022-09-06T01:40:30.636Z,9.20
2022-09-06T01:42:57.748Z,9.77
2022-09-06T01:45:38.974Z,8.80
2022-09-06T01:48:27.063Z,8.57
2022-09-06T01:51:03.825Z,8.95
2022-09-06T01:53:30.072Z,9.90
2022-09-06T01:56:34.167Z,9.27
2022-09-06T01:59:15.687Z,8.98
2022-09-06T02:01:47.226Z,9.63
2022-09-06T02:04:25.613Z,8.23
2022-09-06T02:07:00.624Z,9.38
2022-09-06T02:09:33.296Z,9.25
2022-09-06T02:12:02.203Z,9.13
2022-09-06T02:14:35.984Z,8.43
2022-09-06T02:17:03.809Z,9.20
2022-09-06T02:19:38.444Z,9.23
2022-09-06T02:22:09.018Z,7.57
2022-09-06T02:24:37.736Z,9.07
2022-09-06T02:27:04.598Z,8.32
2022-09-06T02:29:31.249Z,7.85
2022-09-06T02:32:11.784Z,8.82
2022-09-06T02:34:38.810Z,8.27
2022-09-06T02:37:06.350Z,8.27
2022-09-06T02:39:32.741Z,8.27
2022-09-06T02:42:00.023Z,7.97
2022-09-06T02:44:26.333Z,7.95
2022-09-06T02:46:56.813Z,7.68
2022-09-06T02:49:23.598Z,8.98
2022-09-06T02:51:49.902Z,8.43
2022-09-06T02:54:16.243Z,8.48
2022-09-06T02:56:42.738Z,7.70
2022-09-06T02:59:09.040Z,8.13
2022-09-06T03:01:35.500Z,8.63
2022-09-06T03:04:02.100Z,8.85
2022-09-06T03:06:28.408Z,8.50
2022-09-06T03:08:54.716Z,8.30
2022-09-06T03:11:21.087Z,8.05
2022-09-06T03:13:47.473Z,8.40
2022-09-06T03:16:13.881Z,8.90
2022-09-06T03:18:40.222Z,7.45
2022-09-06T03:21:06.545Z,8.02
2022-09-06T03:23:32.862Z,7.57
2022-09-06T03:25:59.182Z,7.75
2022-09-06T03:28:25.889Z,7.55
2022-09-06T03:30:52.738Z,7.68
2022-09-06T03:33:20.357Z,7.80
2022-09-06T03:35:52.667Z,7.60
2022-09-06T03:38:19.937Z,8.55
2022-09-06T03:40:48.038Z,7.70
2022-09-06T03:43:15.650Z,7.72
2022-09-06T03:45:48.670Z,7.43
2022-09-06T03:48:16.302Z,8.10
2022-09-06T03:50:46.695Z,7.80
2022-09-06T03:53:13.840Z,7.22
2022-09-06T03:55:40.203Z,7.60
2022-09-06T03:58:06.570Z,7.05
2022-09-06T04:00:33.088Z,7.30
2022-09-06T04:03:01.754Z,7.03
2022-09-06T04:05:28.403Z,7.60
2022-09-06T04:07:54.726Z,7.38
2022-09-06T04:10:21.070Z,6.75
2022-09-06T04:12:47.382Z,6.90
2022-09-06T04:15:13.709Z,6.82
2022-09-06T04:17:44.195Z,6.85
2022-09-06T04:20:10.547Z,7.07
2022-09-06T04:22:36.872Z,7.70
2022-09-06T04:25:04.125Z,7.30
2022-09-06T04:27:30.435Z,7.72
2022-09-06T04:29:56.767Z,7.13
2022-09-06T04:32:23.271Z,7.30
2022-09-06T04:34:49.583Z,7.45
2022-09-06T04:37:16.132Z,7.70
2022-09-06T04:39:42.476Z,6.90
2022-09-06T04:42:08.810Z,7.15
2022-09-06T04:44:35.133Z,7.05
2022-09-06T04:47:09.443Z,7.10
2022-09-06T04:49:36.125Z,6.88
2022-09-06T04:52:02.607Z,7.57
2022-09-06T04:54:28.940Z,7.50
2022-09-06T04:56:55.277Z,7.30
2022-09-06T04:59:21.700Z,7.07
2022-09-06T05:01:48.057Z,7.07
2022-09-06T05:04:14.473Z,6.85
2022-09-06T05:06:40.781Z,6.82
2022-09-06T05:09:07.309Z,6.85
2022-09-06T05:11:34.091Z,6.82
2022-09-06T05:14:00.417Z,7.32
2022-09-06T05:16:26.797Z,7.20
2022-09-06T05:18:53.162Z,7.57
2022-09-06T05:21:19.472Z,7.50
2022-09-06T05:23:45.774Z,6.47
2022-09-06T05:26:12.124Z,7.28
2022-09-06T05:28:38.451Z,7.75
2022-09-06T05:31:22.405Z,7.65
2022-09-06T05:33:48.724Z,7.55
2022-09-06T05:36:15.072Z,6.72
2022-09-06T05:38:41.414Z,7.53
2022-09-06T05:41:07.722Z,7.38
2022-09-06T05:43:34.032Z,7.82
2022-09-06T05:46:00.443Z,7.68
2022-09-06T05:48:26.906Z,6.72
2022-09-06T05:51:05.103Z,7.07
2022-09-06T05:53:41.924Z,7.50
2022-09-06T05:56:08.650Z,7.95
2022-09-06T05:58:34.979Z,7.57
2022-09-06T06:01:06.416Z,7.47
2022-09-06T06:03:32.772Z,7.03
2022-09-06T06:05:59.306Z,6.60
2022-09-06T06:08:25.632Z,7.30
2022-09-06T06:10:52.007Z,8.00
2022-09-06T06:13:18.311Z,6.88
2022-09-06T06:15:44.612Z,7.25
2022-09-06T06:18:10.966Z,6.80
2022-09-06T06:20:37.282Z,7.30
2022-09-06T06:23:03.600Z,7.53
2022-09-06T06:25:29.929Z,7.70
2022-09-06T06:27:56.236Z,8.07
2022-09-06T06:30:22.788Z,9.95
2022-09-06T06:32:49.129Z,9.48
2022-09-06T06:35:15.474Z,9.40
2022-09-06T06:37:41.772Z,10.35
2022-09-06T06:40:08.691Z,10.70
2022-09-06T06:42:35.034Z,11.35
2022-09-06T06:45:01.361Z,12.05
2022-09-06T06:47:27.688Z,12.38
2022-09-06T06:49:53.990Z,12.60
2022-09-06T06:52:20.322Z,12.57
2022-09-06T06:54:46.648Z,13.07
2022-09-06T06:57:12.980Z,11.50
2022-09-06T06:59:39.270Z,11.57
2022-09-06T07:02:06.545Z,12.05
2022-09-06T07:04:32.922Z,11.13
2022-09-06T07:12:32.015Z,12.00
2022-09-06T07:14:58.511Z,11.57
2022-09-06T07:17:24.927Z,11.85
2022-09-06T07:22:38.701Z,11.43
2022-09-06T07:25:05.614Z,9.50
2022-09-06T07:27:48.107Z,11.13
2022-09-06T07:30:15.441Z,10.68
2022-09-06T07:32:41.799Z,11.07
2022-09-06T07:35:08.639Z,10.90
2022-09-06T07:37:34.985Z,10.38
2022-09-06T07:40:01.824Z,9.88
2022-09-06T07:42:29.957Z,10.65
2022-09-06T07:44:58.040Z,10.45
2022-09-06T07:53:09.486Z,10.35
2022-09-06T07:55:39.268Z,10.25
2022-09-06T07:58:05.572Z,10.50
2022-09-06T08:00:32.037Z,10.27
2022-09-06T08:02:58.503Z,10.30
2022-09-06T08:10:57.430Z,9.25
2022-09-06T08:13:23.906Z,9.82
2022-09-06T08:16:00.923Z,10.40
2022-09-06T08:18:27.520Z,10.85
2022-09-06T08:20:53.874Z,10.38
2022-09-06T08:23:20.226Z,10.02
2022-09-06T08:25:57.156Z,9.82
2022-09-06T08:28:28.114Z,10.23
2022-09-06T08:30:55.125Z,9.15
2022-09-06T08:33:21.517Z,9.77
2022-09-06T08:35:55.808Z,8.95
2022-09-06T08:38:22.223Z,9.95
2022-09-06T08:40:48.745Z,8.93
2022-09-06T08:43:19.093Z,8.80
2022-09-06T08:45:55.860Z,9.00
2022-09-06T08:48:24.649Z,9.20
2022-09-06T08:51:00.492Z,8.52
2022-09-06T08:53:26.891Z,7.97
2022-09-06T08:56:03.062Z,8.65
2022-09-06T08:58:47.682Z,8.32
2022-09-06T09:01:29.852Z,8.73
2022-09-06T09:04:01.911Z,7.45
2022-09-06T09:06:29.464Z,8.18
2022-09-06T09:09:07.689Z,8.50
2022-09-06T09:11:35.042Z,7.20
2022-09-06T09:14:30.638Z,8.05
2022-09-06T09:17:06.081Z,8.45
2022-09-06T09:19:32.405Z,7.85
2022-09-06T09:21:58.899Z,7.10
2022-09-06T09:24:25.577Z,8.20
2022-09-06T09:26:57.540Z,7.60
2022-09-06T09:29:27.971Z,6.20
2022-09-06T09:31:56.534Z,7.53
2022-09-06T09:34:35.354Z,7.95
2022-09-06T09:37:46.717Z,7.00
2022-09-06T09:40:18.097Z,6.30
2022-09-06T09:42:44.665Z,6.68
2022-09-06T09:45:20.039Z,6.40
2022-09-06T09:47:46.839Z,6.97
2022-09-06T09:50:25.376Z,7.22
2022-09-06T09:52:51.707Z,6.13
2022-09-06T09:55:23.248Z,6.50
2022-09-06T09:57:50.623Z,6.30
2022-09-06T10:00:34.210Z,7.85
2022-09-06T10:03:11.037Z,6.03
2022-09-06T10:05:37.453Z,5.80
2022-09-06T10:08:03.818Z,5.93
2022-09-06T10:10:39.467Z,6.18
2022-09-06T10:13:09.594Z,6.22
2022-09-06T10:15:38.812Z,6.53
2022-09-06T10:18:05.422Z,6.25
2022-09-06T10:20:54.150Z,6.13
2022-09-06T10:26:51.551Z,5.65
2022-09-06T10:29:32.132Z,6.18
2022-09-06T10:32:17.456Z,5.50
2022-09-06T10:35:14.835Z,5.78
2022-09-06T10:37:44.916Z,5.32
2022-09-06T10:40:19.507Z,5.70
2022-09-06T10:42:47.181Z,5.40
2022-09-06T10:45:58.735Z,5.18
2022-09-06T10:48:30.351Z,5.18
2022-09-06T10:51:10.348Z,5.60
2022-09-06T10:54:06.602Z,4.95
2022-09-06T10:56:45.067Z,5.57
2022-09-06T10:59:38.627Z,5.22
2022-09-06T11:07:41.934Z,5.00
2022-09-06T11:10:18.423Z,5.38
2022-09-06T11:12:58.854Z,5.20
2022-09-06T11:15:29.566Z,4.90
2022-09-06T11:18:11.119Z,4.95
2022-09-06T11:20:45.810Z,5.03
2022-09-06T11:23:32.360Z,5.15
2022-09-06T11:26:28.876Z,4.90
2022-09-06T11:28:57.740Z,4.78
2022-09-06T11:34:28.511Z,5.10
2022-09-06T11:36:58.261Z,5.38
2022-09-06T11:42:43.544Z,5.00
2022-09-06T11:45:47.536Z,5.10
2022-09-06T11:48:25.807Z,4.80
2022-09-06T11:50:55.089Z,5.22
2022-09-06T11:53:23.308Z,4.72
2022-09-06T11:56:02.004Z,4.85
2022-09-06T11:58:54.154Z,4.20
2022-09-06T12:01:20.501Z,4.85
2022-09-06T12:04:09.118Z,5.10
2022-09-06T12:06:42.150Z,4.95
2022-09-06T12:09:35.197Z,5.57
2022-09-06T12:12:02.642Z,5.27
2022-09-06T12:14:34.693Z,5.78
2022-09-06T12:17:00.950Z,4.80
2022-09-06T12:19:47.299Z,5.22
2022-09-06T12:22:28.580Z,5.88
2022-09-06T12:25:36.376Z,4.85
2022-09-06T12:28:05.863Z,4.97
2022-09-06T12:30:40.881Z,5.78
2022-09-06T12:33:36.012Z,5.78
2022-09-06T12:36:31.057Z,5.13
2022-09-06T12:39:11.171Z,5.50
2022-09-06T12:41:50.992Z,5.10
2022-09-06T12:44:21.649Z,5.38
2022-09-06T12:46:50.561Z,5.32
2022-09-06T12:49:21.259Z,5.05
2022-09-06T12:51:48.172Z,5.18
2022-09-06T12:54:25.244Z,5.20
2022-09-06T12:56:52.515Z,4.82
2022-09-06T12:59:24.339Z,5.35
2022-09-06T13:02:01.328Z,5.38
2022-09-06T13:04:31.564Z,5.20
2022-09-06T13:07:00.527Z,4.82
2022-09-06T13:09:28.191Z,5.18
2022-09-06T13:12:00.102Z,5.45
2022-09-06T13:14:29.777Z,4.80
2022-09-06T13:16:56.515Z,5.05
2022-09-06T13:19:35.686Z,5.28
2022-09-06T13:22:05.079Z,5.43
2022-09-06T13:24:34.154Z,4.60
2022-09-06T13:27:00.555Z,5.70
2022-09-06T13:29:31.486Z,5.68
2022-09-06T13:32:00.950Z,4.90
2022-09-06T13:34:30.061Z,4.88
2022-09-06T13:37:03.291Z,4.53
2022-09-06T13:42:04.768Z,5.40
2022-09-06T13:44:32.653Z,5.45
2022-09-06T13:46:59.195Z,5.38
2022-09-06T13:49:26.160Z,4.80
2022-09-06T13:51:53.965Z,5.05
2022-09-06T13:54:20.275Z,5.18
2022-09-06T13:56:46.600Z,5.47
2022-09-06T13:59:12.951Z,5.38
2022-09-06T14:01:41.238Z,5.35
2022-09-06T14:04:11.160Z,5.65
2022-09-06T14:06:37.467Z,5.50
2022-09-06T14:09:08.486Z,5.18
2022-09-06T14:11:35.627Z,6.15
2022-09-06T14:14:02.047Z,5.00
2022-09-06T14:16:28.414Z,5.72
2022-09-06T14:18:54.745Z,4.53
2022-09-06T14:21:21.072Z,5.70
2022-09-06T14:23:51.140Z,6.50
2022-09-06T14:26:18.297Z,4.32
2022-09-06T14:28:45.057Z,6.00
2022-09-06T14:31:14.018Z,5.13
2022-09-06T14:33:40.417Z,4.93
2022-09-06T14:36:13.004Z,4.90
2022-09-06T14:38:40.593Z,5.38
2022-09-06T14:41:08.384Z,5.00
2022-09-06T14:43:35.664Z,5.28
2022-09-06T14:46:14.029Z,5.43
2022-09-06T14:48:42.538Z,5.00
2022-09-06T14:51:16.867Z,5.35
2022-09-06T14:53:44.836Z,5.25
2022-09-06T14:56:12.094Z,5.45
2022-09-06T14:58:39.376Z,5.10
2022-09-06T15:01:13.582Z,5.15
2022-09-06T15:03:41.847Z,4.88
2022-09-06T15:06:09.357Z,6.03
2022-09-06T15:08:36.506Z,4.65
2022-09-06T15:11:03.065Z,5.00
2022-09-06T15:13:29.572Z,4.82
2022-09-06T15:15:56.438Z,5.80
2022-09-06T15:18:23.060Z,3.97
2022-09-06T15:20:49.632Z,5.15
2022-09-06T15:23:24.945Z,4.85
2022-09-06T15:25:52.706Z,4.60
2022-09-06T15:28:19.080Z,5.72
2022-09-06T15:30:46.184Z,5.18
2022-09-06T15:33:12.795Z,5.20
2022-09-06T15:35:39.098Z,4.90
2022-09-06T15:38:05.402Z,4.82
2022-09-06T15:40:31.909Z,4.93
2022-09-06T15:42:58.271Z,5.13
2022-09-06T15:45:24.590Z,4.40
2022-09-06T15:47:50.916Z,5.30
2022-09-06T15:50:34.433Z,5.15
2022-09-06T15:53:03.571Z,4.82
2022-09-06T15:55:30.482Z,5.18
2022-09-06T15:57:56.871Z,4.90
2022-09-06T16:00:23.607Z,5.00
2022-09-06T16:02:50.162Z,5.18
2022-09-06T16:05:16.641Z,5.32
2022-09-06T16:07:42.969Z,5.47
2022-09-06T16:10:09.558Z,5.20
2022-09-06T16:12:35.855Z,5.20
2022-09-06T16:15:02.182Z,5.13
2022-09-06T16:17:28.496Z,5.30
2022-09-06T16:19:54.839Z,5.25
2022-09-06T16:22:21.177Z,4.88
2022-09-06T16:24:47.488Z,5.38
2022-09-06T16:27:13.824Z,5.03
2022-09-06T16:29:40.206Z,4.78
2022-09-06T16:32:06.518Z,5.60
2022-09-06T16:34:32.970Z,5.30
2022-09-06T16:36:59.295Z,5.47
2022-09-06T16:39:25.629Z,5.32
2022-09-06T16:41:52.438Z,4.80
2022-09-06T16:44:20.334Z,5.30
2022-09-06T16:46:48.632Z,5.22
2022-09-06T16:49:16.533Z,4.80
2022-09-06T16:54:00.630Z,4.70
2022-09-06T16:56:28.942Z,4.97
2022-09-06T16:58:57.337Z,4.80
2022-09-06T17:01:25.202Z,5.05
2022-09-06T17:03:51.908Z,5.03
2022-09-06T17:06:19.298Z,4.60
2022-09-06T17:08:45.792Z,5.28
2022-09-06T17:11:15.280Z,5.75
2022-09-06T17:13:42.920Z,5.00
2022-09-06T17:16:09.577Z,5.05
2022-09-06T17:18:35.990Z,5.18
2022-09-06T17:21:02.381Z,5.47
2022-09-06T17:23:28.803Z,4.82
2022-09-06T17:25:55.180Z,5.90
2022-09-06T17:28:23.059Z,6.28
2022-09-06T17:30:49.678Z,5.30
2022-09-06T17:33:16.255Z,5.13
2022-09-06T17:35:42.783Z,5.20
2022-09-06T17:38:09.184Z,5.43
2022-09-06T17:40:35.655Z,4.40
2022-09-06T17:43:02.225Z,4.85
2022-09-06T17:45:36.361Z,5.10
2022-09-06T17:48:03.224Z,5.05
2022-09-06T17:50:29.750Z,6.30
2022-09-06T17:52:56.182Z,5.50
2022-09-06T17:55:22.878Z,5.30
2022-09-06T17:57:49.275Z,5.78
2022-09-06T18:00:16.120Z,4.88
2022-09-06T18:02:43.812Z,5.90
2022-09-06T18:05:10.238Z,5.97
2022-09-06T18:07:36.699Z,5.45
2022-09-06T18:10:03.419Z,5.40
2022-09-06T18:12:29.812Z,5.28
2022-09-06T18:14:56.242Z,5.57
2022-09-06T18:17:22.618Z,5.28
2022-09-06T18:19:50.332Z,5.40
2022-09-06T18:22:16.740Z,5.25
2022-09-06T18:24:43.129Z,6.05
2022-09-06T18:27:09.522Z,5.88
2022-09-06T18:29:35.976Z,5.90
2022-09-06T18:32:02.961Z,6.18
2022-09-06T18:34:29.411Z,5.53
2022-09-06T18:36:57.119Z,5.82
2022-09-06T18:39:23.531Z,5.90
2022-09-06T18:41:49.931Z,5.70
2022-09-06T18:44:16.842Z,6.03
2022-09-06T18:46:43.864Z,6.00
2022-09-06T18:49:10.284Z,6.03
2022-09-06T18:51:39.602Z,5.50
2022-09-06T18:54:07.545Z,6.15
2022-09-06T18:56:33.931Z,5.78
2022-09-06T18:59:00.795Z,5.57
2022-09-06T19:01:29.192Z,6.85
2022-09-06T19:03:56.250Z,6.25
2022-09-06T19:06:22.682Z,6.03
2022-09-06T19:08:49.827Z,6.53
2022-09-06T19:11:19.100Z,5.68
2022-09-06T19:13:49.577Z,6.15
2022-09-06T19:16:16.507Z,6.22
2022-09-06T19:18:43.316Z,6.25
2022-09-06T19:21:12.218Z,6.60
2022-09-06T19:23:40.557Z,5.90
2022-09-06T19:26:09.501Z,6.03
2022-09-06T19:28:38.066Z,6.07
2022-09-06T19:31:06.437Z,6.10
2022-09-06T19:33:36.006Z,6.40
2022-09-06T19:36:11.470Z,5.95
2022-09-06T19:39:01.566Z,6.38
2022-09-06T19:41:26.271Z,6.22
2022-09-06T19:43:55.580Z,5.60
2022-09-06T19:46:22.705Z,6.10
2022-09-06T19:48:50.760Z,6.45
2022-09-06T19:51:18.246Z,6.20
2022-09-06T19:53:48.541Z,5.63
2022-09-06T19:56:18.115Z,6.32
2022-09-06T19:58:45.115Z,6.00
2022-09-06T20:01:14.205Z,6.10
2022-09-06T20:03:40.716Z,5.63
2022-09-06T20:06:08.124Z,5.72
2022-09-06T20:08:35.704Z,6.25
2022-09-06T20:11:04.418Z,6.35
2022-09-06T20:13:30.891Z,6.63
2022-09-06T20:15:57.374Z,6.13
2022-09-06T20:18:25.336Z,7.25
2022-09-06T20:20:54.461Z,6.22
2022-09-06T20:23:21.065Z,6.32
2022-09-06T20:25:47.483Z,6.30
2022-09-06T20:28:15.028Z,6.07
2022-09-06T20:30:42.020Z,6.18
2022-09-06T20:33:08.449Z,6.03
2022-09-06T20:35:36.158Z,5.97
2022-09-06T20:38:02.613Z,6.05
2022-09-06T20:40:29.047Z,6.10
2022-09-06T20:42:55.452Z,6.35
2022-09-06T20:45:22.435Z,6.15
2022-09-06T20:47:48.852Z,6.15
2022-09-06T20:50:15.469Z,6.05
2022-09-06T20:52:43.166Z,6.32
2022-09-06T20:55:09.827Z,5.85
2022-09-06T20:57:36.214Z,6.75
2022-09-06T21:00:03.418Z,6.32
2022-09-06T21:02:29.913Z,5.88
2022-09-06T21:04:56.356Z,6.47
2022-09-06T21:07:22.744Z,6.85
2022-09-06T21:09:50.434Z,5.95
2022-09-06T21:12:16.858Z,6.20
2022-09-06T21:14:43.240Z,6.57
2022-09-06T21:17:09.622Z,6.55
2022-09-06T21:19:36.037Z,6.43
2022-09-06T21:22:02.400Z,6.80
2022-09-06T21:24:28.799Z,6.45
2022-09-06T21:26:56.487Z,6.65
2022-09-06T21:29:23.169Z,6.60
2022-09-06T21:31:49.629Z,6.65
2022-09-06T21:34:17.304Z,6.28
2022-09-06T21:36:44.249Z,6.65
2022-09-06T21:39:11.721Z,6.50
2022-09-06T21:41:39.537Z,6.80
2022-09-06T21:44:08.191Z,6.05
2022-09-06T21:46:37.821Z,6.50
2022-09-06T21:49:06.434Z,5.85
2022-09-06T21:51:33.288Z,6.80
2022-09-06T21:54:00.824Z,6.97
2022-09-06T21:56:27.196Z,6.45
2022-09-06T21:58:55.416Z,7.03
2022-09-06T22:01:24.346Z,7.00
2022-09-06T22:03:51.405Z,6.63
2022-09-06T22:06:19.253Z,7.05
2022-09-06T22:08:46.511Z,7.22
2022-09-06T22:11:15.464Z,7.15
2022-09-06T22:13:42.678Z,7.80
2022-09-06T22:16:09.804Z,6.97
2022-09-06T22:18:38.126Z,7.50
2022-09-06T22:21:07.786Z,6.65
2022-09-06T22:23:34.881Z,6.70
2022-09-06T22:26:03.488Z,7.18
2022-09-06T22:28:29.947Z,7.80
2022-09-06T22:30:56.484Z,7.13
2022-09-06T22:33:23.306Z,7.70
2022-09-06T22:35:51.303Z,7.35
2022-09-06T22:38:17.796Z,6.85
2022-09-06T22:40:44.247Z,7.10
2022-09-06T22:43:11.102Z,6.78
2022-09-06T22:45:37.504Z,7.25
2022-09-06T22:48:04.332Z,7.93
2022-09-06T22:50:30.871Z,7.47
2022-09-06T22:52:58.580Z,7.72
2022-09-06T22:55:24.987Z,8.00
2022-09-06T22:57:51.388Z,7.68
2022-09-06T23:00:18.335Z,7.63
2022-09-06T23:02:44.739Z,8.18
2022-09-06T23:05:11.097Z,8.38
2022-09-06T23:07:37.520Z,8.20
2022-09-06T23:10:06.371Z,8.93
2022-09-06T23:12:32.759Z,7.82
2022-09-06T23:14:59.248Z,7.63
2022-09-06T23:17:25.668Z,8.30
2022-09-06T23:19:52.092Z,7.82
2022-09-06T23:22:18.482Z,8.35
2022-09-06T23:24:44.836Z,8.55
2022-09-06T23:27:12.541Z,8.32
2022-09-06T23:29:38.961Z,8.93
2022-09-06T23:32:05.541Z,8.57
2022-09-06T23:34:31.982Z,8.32
2022-09-06T23:36:58.393Z,8.50
2022-09-06T23:39:26.151Z,8.20
2022-09-06T23:41:52.538Z,8.18
2022-09-06T23:44:20.262Z,8.00
2022-09-06T23:46:46.689Z,8.50
2022-09-06T23:49:14.133Z,9.05
2022-09-06T23:51:40.698Z,8.60
2022-09-06T23:54:07.386Z,9.45
2022-09-06T23:56:33.922Z,9.75
2022-09-06T23:59:00.348Z,8.80
